createdAt,value
2024-03-02T00:00:12.645Z,470.00
2024-03-02T00:01:12.764Z,470.00
2024-03-02T00:02:12.690Z,472.00
2024-03-02T00:03:12.755Z,472.00
2024-03-02T00:04:12.795Z,472.00
2024-03-02T00:05:12.843Z,472.00
2024-03-02T00:06:12.917Z,473.00
2024-03-02T00:07:12.938Z,474.00
2024-03-02T00:08:12.990Z,472.00
2024-03-02T00:09:13.028Z,469.00
2024-03-02T00:10:13.004Z,471.00
2024-03-02T00:11:13.013Z,472.00
2024-03-02T00:12:13.116Z,473.00
2024-03-02T00:13:13.017Z,474.00
2024-03-02T00:14:13.019Z,476.00
2024-03-02T00:15:13.125Z,474.00
2024-03-02T00:16:13.032Z,474.00
2024-03-02T00:17:13.033Z,476.00
2024-03-02T00:18:13.118Z,475.00
2024-03-02T00:19:13.013Z,472.00
2024-03-02T00:20:13.027Z,474.00
2024-03-02T00:21:13.055Z,476.00
2024-03-02T00:22:13.024Z,478.00
2024-03-02T00:23:13.040Z,477.00
2024-03-02T00:24:13.140Z,476.00
2024-03-02T00:25:13.241Z,476.00
2024-03-02T00:26:13.092Z,474.00
2024-03-02T00:27:13.159Z,474.00
2024-03-02T00:28:13.079Z,473.00
2024-03-02T00:29:13.079Z,472.00
2024-03-02T00:30:13.144Z,472.00
2024-03-02T00:31:13.102Z,472.00
2024-03-02T00:32:13.101Z,470.00
2024-03-02T00:33:13.204Z,467.00
2024-03-02T00:34:13.155Z,465.00
2024-03-02T00:35:13.114Z,464.00
2024-03-02T00:36:13.133Z,463.00
2024-03-02T00:37:13.144Z,463.00
2024-03-02T00:38:13.142Z,463.00
2024-03-02T00:39:13.372Z,467.00
2024-03-02T00:40:13.249Z,467.00
2024-03-02T00:41:13.282Z,466.00
2024-03-02T00:42:13.398Z,464.00
2024-03-02T00:43:13.379Z,464.00
2024-03-02T00:44:13.460Z,464.00
2024-03-02T00:45:13.502Z,466.00
2024-03-02T00:46:13.540Z,468.00
2024-03-02T00:47:13.593Z,470.00
2024-03-02T00:48:13.678Z,471.00
2024-03-02T00:49:13.720Z,470.00
2024-03-02T00:50:20.630Z,471.00
2024-03-02T00:51:14.790Z,469.00
2024-03-02T00:52:13.737Z,468.00
2024-03-02T00:53:13.751Z,469.00
2024-03-02T00:54:13.766Z,466.00
2024-03-02T00:55:13.758Z,466.00
2024-03-02T00:56:13.759Z,468.00
2024-03-02T00:57:13.885Z,467.00
2024-03-02T00:58:13.777Z,467.00
2024-03-02T00:59:13.770Z,469.00
2024-03-02T01:00:13.795Z,468.00
2024-03-02T01:01:13.813Z,466.00
2024-03-02T01:02:13.760Z,469.00
2024-03-02T01:03:13.826Z,467.00
2024-03-02T01:04:13.821Z,467.00
2024-03-02T01:05:13.874Z,468.00
2024-03-02T01:06:13.955Z,466.00
2024-03-02T01:07:13.960Z,466.00
2024-03-02T01:08:14.009Z,465.00
2024-03-02T01:09:14.159Z,464.00
2024-03-02T01:10:14.127Z,465.00
2024-03-02T01:11:14.204Z,465.00
2024-03-02T01:12:14.237Z,467.00
2024-03-02T01:13:14.279Z,465.00
2024-03-02T01:14:14.313Z,463.00
2024-03-02T01:15:14.426Z,462.00
2024-03-02T01:16:14.435Z,464.00
2024-03-02T01:17:14.488Z,465.00
2024-03-02T01:18:14.558Z,464.00
2024-03-02T01:19:14.624Z,464.00
2024-03-02T01:20:14.654Z,463.00
2024-03-02T01:21:14.686Z,463.00
2024-03-02T01:22:14.704Z,464.00
2024-03-02T01:23:14.766Z,461.00
2024-03-02T01:24:14.836Z,462.00
2024-03-02T01:25:14.870Z,463.00
2024-03-02T01:26:14.917Z,464.00
2024-03-02T01:27:15.046Z,463.00
2024-03-02T01:28:15.066Z,464.00
2024-03-02T01:29:15.087Z,463.00
2024-03-02T01:30:15.172Z,462.00
2024-03-02T01:31:15.186Z,462.00
2024-03-02T01:32:15.236Z,464.00
2024-03-02T01:33:15.319Z,462.00
2024-03-02T01:34:15.344Z,462.00
2024-03-02T01:35:15.379Z,462.00
2024-03-02T01:36:15.482Z,461.00
2024-03-02T01:37:15.503Z,461.00
2024-03-02T01:38:15.530Z,462.00
2024-03-02T01:39:15.596Z,462.00
2024-03-02T01:40:15.644Z,463.00
2024-03-02T01:41:15.680Z,464.00
2024-03-02T01:42:15.746Z,464.00
2024-03-02T01:43:15.770Z,465.00
2024-03-02T01:44:15.827Z,466.00
2024-03-02T01:45:15.926Z,465.00
2024-03-02T01:46:15.960Z,466.00
2024-03-02T01:47:15.937Z,466.00
2024-03-02T01:48:16.022Z,467.00
2024-03-02T01:49:15.959Z,466.00
2024-03-02T01:50:15.936Z,466.00
2024-03-02T01:51:15.967Z,466.00
2024-03-02T01:52:15.932Z,465.00
2024-03-02T01:53:15.934Z,465.00
2024-03-02T01:54:15.962Z,466.00
2024-03-02T01:55:15.944Z,465.00
2024-03-02T01:56:15.939Z,462.00
2024-03-02T01:57:15.990Z,460.00
2024-03-02T01:58:15.955Z,459.00
2024-03-02T01:59:15.966Z,461.00
2024-03-02T02:00:16.091Z,463.00
2024-03-02T02:01:16.150Z,462.00
2024-03-02T02:02:16.139Z,461.00
2024-03-02T02:03:16.223Z,460.00
2024-03-02T02:04:16.230Z,460.00
2024-03-02T02:05:16.301Z,462.00
2024-03-02T02:06:16.413Z,461.00
2024-03-02T02:07:16.400Z,462.00
2024-03-02T02:08:16.452Z,461.00
2024-03-02T02:09:16.553Z,462.00
2024-03-02T02:10:16.577Z,460.00
2024-03-02T02:11:16.641Z,465.00
2024-03-02T02:12:16.730Z,464.00
2024-03-02T02:13:16.717Z,466.00
2024-03-02T02:14:16.788Z,466.00
2024-03-02T02:15:16.848Z,465.00
2024-03-02T02:16:16.891Z,463.00
2024-03-02T02:17:16.940Z,462.00
2024-03-02T02:18:17.099Z,462.00
2024-03-02T02:19:17.073Z,460.00
2024-03-02T02:20:17.118Z,460.00
2024-03-02T02:21:17.267Z,460.00
2024-03-02T02:22:17.254Z,461.00
2024-03-02T02:23:17.312Z,461.00
2024-03-02T02:24:17.367Z,461.00
2024-03-02T02:25:17.304Z,460.00
2024-03-02T02:26:17.274Z,457.00
2024-03-02T02:27:17.307Z,458.00
2024-03-02T02:28:17.252Z,458.00
2024-03-02T02:29:17.263Z,459.00
2024-03-02T02:30:17.269Z,459.00
2024-03-02T02:31:17.256Z,457.00
2024-03-02T02:32:17.238Z,457.00
2024-03-02T02:33:17.354Z,459.00
2024-03-02T02:34:17.239Z,459.00
2024-03-02T02:35:17.241Z,459.00
2024-03-02T02:36:17.278Z,461.00
2024-03-02T02:37:17.254Z,459.00
2024-03-02T02:38:17.232Z,457.00
2024-03-02T02:39:17.303Z,456.00
2024-03-02T02:40:17.238Z,454.00
2024-03-02T02:41:17.232Z,455.00
2024-03-02T02:42:17.302Z,456.00
2024-03-02T02:43:17.227Z,459.00
2024-03-02T02:44:17.224Z,459.00
2024-03-02T02:45:17.284Z,457.00
2024-03-02T02:46:17.237Z,458.00
2024-03-02T02:47:17.229Z,458.00
2024-03-02T02:48:17.280Z,458.00
2024-03-02T02:49:17.247Z,458.00
2024-03-02T02:50:17.250Z,457.00
2024-03-02T02:51:17.320Z,456.00
2024-03-02T02:52:17.367Z,456.00
2024-03-02T02:53:17.417Z,457.00
2024-03-02T02:54:17.481Z,457.00
2024-03-02T02:55:17.522Z,457.00
2024-03-02T02:56:17.517Z,457.00
2024-03-02T02:57:17.535Z,456.00
2024-03-02T02:58:17.508Z,453.00
2024-03-02T02:59:17.526Z,453.00
2024-03-02T03:00:18.583Z,455.00
2024-03-02T03:01:17.573Z,455.00
2024-03-02T03:02:17.506Z,457.00
2024-03-02T03:03:17.548Z,460.00
2024-03-02T03:04:17.512Z,461.00
2024-03-02T03:05:17.589Z,463.00
2024-03-02T03:06:17.576Z,462.00
2024-03-02T03:07:17.513Z,463.00
2024-03-02T03:08:17.516Z,461.00
2024-03-02T03:09:17.530Z,459.00
2024-03-02T03:10:17.521Z,457.00
2024-03-02T03:11:17.546Z,457.00
2024-03-02T03:12:17.559Z,459.00
2024-03-02T03:13:17.540Z,459.00
2024-03-02T03:14:17.556Z,456.00
2024-03-02T03:15:17.852Z,456.00
2024-03-02T03:16:17.552Z,457.00
2024-03-02T03:17:17.548Z,460.00
2024-03-02T03:18:17.653Z,460.00
2024-03-02T03:19:17.559Z,460.00
2024-03-02T03:20:17.546Z,459.00
2024-03-02T03:21:17.583Z,460.00
2024-03-02T03:22:17.557Z,458.00
2024-03-02T03:23:17.560Z,458.00
2024-03-02T03:24:17.583Z,459.00
2024-03-02T03:25:17.561Z,460.00
2024-03-02T03:26:17.558Z,459.00
2024-03-02T03:27:17.590Z,459.00
2024-03-02T03:28:17.577Z,458.00
2024-03-02T03:29:17.563Z,456.00
2024-03-02T03:30:17.631Z,457.00
2024-03-02T03:31:17.589Z,457.00
2024-03-02T03:32:17.628Z,456.00
2024-03-02T03:33:17.734Z,456.00
2024-03-02T03:34:17.759Z,456.00
2024-03-02T03:35:17.870Z,457.00
2024-03-02T03:36:17.894Z,456.00
2024-03-02T03:37:17.982Z,454.00
2024-03-02T03:38:18.008Z,450.00
2024-03-02T03:39:18.112Z,443.00
2024-03-02T03:40:18.147Z,446.00
2024-03-02T03:41:18.207Z,449.00
2024-03-02T03:42:18.307Z,452.00
2024-03-02T03:43:18.350Z,454.00
2024-03-02T03:44:18.423Z,454.00
2024-03-02T03:45:18.531Z,455.00
2024-03-02T03:46:18.437Z,453.00
2024-03-02T03:47:18.473Z,453.00
2024-03-02T03:48:18.509Z,451.00
2024-03-02T03:49:18.511Z,451.00
2024-03-02T03:50:18.522Z,453.00
2024-03-02T03:51:18.559Z,458.00
2024-03-02T03:52:18.560Z,457.00
2024-03-02T03:53:18.565Z,455.00
2024-03-02T03:54:18.690Z,454.00
2024-03-02T03:55:18.611Z,454.00
2024-03-02T03:56:18.615Z,457.00
2024-03-02T03:57:18.706Z,455.00
2024-03-02T03:58:20.052Z,453.00
2024-03-02T03:59:18.635Z,452.00
2024-03-02T04:00:18.689Z,451.00
2024-03-02T04:01:18.719Z,450.00
2024-03-02T04:02:18.667Z,449.00
2024-03-02T04:03:18.715Z,448.00
2024-03-02T04:04:18.670Z,449.00
2024-03-02T04:05:18.714Z,449.00
2024-03-02T04:06:18.755Z,451.00
2024-03-02T04:07:18.748Z,451.00
2024-03-02T04:08:18.725Z,451.00
2024-03-02T04:09:18.780Z,452.00
2024-03-02T04:10:18.761Z,455.00
2024-03-02T04:11:18.802Z,456.00
2024-03-02T04:12:18.820Z,456.00
2024-03-02T04:13:18.785Z,455.00
2024-03-02T04:14:18.794Z,453.00
2024-03-02T04:15:18.884Z,452.00
2024-03-02T04:16:18.824Z,451.00
2024-03-02T04:17:18.829Z,448.00
2024-03-02T04:18:18.871Z,448.00
2024-03-02T04:19:18.869Z,447.00
2024-03-02T04:20:18.892Z,446.00
2024-03-02T04:21:18.965Z,445.00
2024-03-02T04:22:24.991Z,445.00
2024-03-02T04:23:19.941Z,446.00
2024-03-02T04:24:18.942Z,447.00
2024-03-02T04:25:18.951Z,448.00
2024-03-02T04:26:18.965Z,447.00
2024-03-02T04:27:19.017Z,448.00
2024-03-02T04:28:18.973Z,448.00
2024-03-02T04:29:18.988Z,451.00
2024-03-02T04:30:19.043Z,448.00
2024-03-02T04:31:19.008Z,446.00
2024-03-02T04:32:19.025Z,445.00
2024-03-02T04:33:19.179Z,445.00
2024-03-02T04:34:19.040Z,445.00
2024-03-02T04:35:31.197Z,447.00
2024-03-02T04:36:31.266Z,447.00
2024-03-02T04:37:31.190Z,450.00
2024-03-02T04:38:31.173Z,450.00
2024-03-02T04:39:31.169Z,451.00
2024-03-02T04:40:31.162Z,449.00
2024-03-02T04:41:31.157Z,450.00
2024-03-02T04:42:31.193Z,450.00
2024-03-02T04:43:31.153Z,450.00
2024-03-02T04:44:31.128Z,451.00
2024-03-02T04:45:31.149Z,452.00
2024-03-02T04:46:31.110Z,450.00
2024-03-02T04:47:31.122Z,447.00
2024-03-02T04:48:31.315Z,446.00
2024-03-02T04:49:31.320Z,447.00
2024-03-02T04:50:31.272Z,445.00
2024-03-02T04:51:31.317Z,445.00
2024-03-02T04:52:31.360Z,445.00
2024-03-02T04:53:31.406Z,446.00
2024-03-02T04:54:31.448Z,446.00
2024-03-02T04:55:31.473Z,444.00
2024-03-02T04:56:31.499Z,443.00
2024-03-02T04:57:31.585Z,445.00
2024-03-02T04:58:31.572Z,444.00
2024-03-02T04:59:31.617Z,442.00
2024-03-02T05:00:31.673Z,443.00
2024-03-02T05:01:31.719Z,444.00
2024-03-02T05:02:31.724Z,444.00
2024-03-02T05:03:31.828Z,443.00
2024-03-02T05:04:31.788Z,443.00
2024-03-02T05:05:31.849Z,442.00
2024-03-02T05:06:31.891Z,441.00
2024-03-02T05:07:31.876Z,443.00
2024-03-02T05:08:31.939Z,445.00
2024-03-02T05:09:31.975Z,446.00
2024-03-02T05:10:31.955Z,444.00
2024-03-02T05:11:32.078Z,444.00
2024-03-02T05:12:32.050Z,442.00
2024-03-02T05:13:32.000Z,442.00
2024-03-02T05:14:32.045Z,442.00
2024-03-02T05:15:32.104Z,442.00
2024-03-02T05:16:32.060Z,443.00
2024-03-02T05:17:32.150Z,443.00
2024-03-02T05:18:32.139Z,441.00
2024-03-02T05:19:32.095Z,441.00
2024-03-02T05:20:32.087Z,441.00
2024-03-02T05:21:32.143Z,440.00
2024-03-02T05:22:32.123Z,442.00
2024-03-02T05:23:32.121Z,443.00
2024-03-02T05:24:32.210Z,444.00
2024-03-02T05:25:32.204Z,444.00
2024-03-02T05:26:32.228Z,445.00
2024-03-02T05:27:32.292Z,443.00
2024-03-02T05:28:32.237Z,442.00
2024-03-02T05:29:32.236Z,442.00
2024-03-02T05:30:32.300Z,440.00
2024-03-02T05:31:32.255Z,438.00
2024-03-02T05:32:32.239Z,436.00
2024-03-02T05:33:32.326Z,436.00
2024-03-02T05:34:32.251Z,436.00
2024-03-02T05:35:32.212Z,438.00
2024-03-02T05:36:32.239Z,439.00
2024-03-02T05:37:32.224Z,438.00
2024-03-02T05:38:32.211Z,440.00
2024-03-02T05:39:32.237Z,444.00
2024-03-02T05:40:32.194Z,446.00
2024-03-02T05:41:32.182Z,450.00
2024-03-02T05:42:32.238Z,450.00
2024-03-02T05:43:32.176Z,450.00
2024-03-02T05:44:32.178Z,447.00
2024-03-02T05:45:32.176Z,447.00
2024-03-02T05:46:32.173Z,446.00
2024-03-02T05:47:32.176Z,446.00
2024-03-02T05:48:32.196Z,449.00
2024-03-02T05:49:32.168Z,449.00
2024-03-02T05:50:32.180Z,448.00
2024-03-02T05:51:32.232Z,447.00
2024-03-02T05:52:32.179Z,446.00
2024-03-02T05:53:32.168Z,444.00
2024-03-02T05:54:32.207Z,445.00
2024-03-02T05:55:32.169Z,447.00
2024-03-02T05:56:32.172Z,448.00
2024-03-02T05:57:32.172Z,448.00
2024-03-02T05:58:32.150Z,448.00
2024-03-02T05:59:32.150Z,448.00
2024-03-02T06:00:32.245Z,449.00
2024-03-02T06:01:32.224Z,449.00
2024-03-02T06:02:32.115Z,449.00
2024-03-02T06:03:32.106Z,448.00
2024-03-02T06:04:32.088Z,450.00
2024-03-02T06:05:32.086Z,450.00
2024-03-02T06:06:32.140Z,451.00
2024-03-02T06:07:32.149Z,451.00
2024-03-02T06:08:32.061Z,449.00
2024-03-02T06:09:32.098Z,449.00
2024-03-02T06:10:32.069Z,451.00
2024-03-02T06:11:32.086Z,454.00
2024-03-02T06:12:32.063Z,455.00
2024-03-02T06:13:32.039Z,454.00
2024-03-02T06:14:32.014Z,452.00
2024-03-02T06:15:32.045Z,453.00
2024-03-02T06:16:31.994Z,452.00
2024-03-02T06:17:32.071Z,455.00
2024-03-02T06:18:32.012Z,453.00
2024-03-02T06:19:31.954Z,453.00
2024-03-02T06:20:34.477Z,450.00
2024-03-02T06:21:31.988Z,450.00
2024-03-02T06:22:31.921Z,451.00
2024-03-02T06:23:31.895Z,450.00
2024-03-02T06:24:31.924Z,449.00
2024-03-02T06:25:31.891Z,448.00
2024-03-02T06:26:31.887Z,448.00
2024-03-02T06:27:31.928Z,450.00
2024-03-02T06:28:31.847Z,452.00
2024-03-02T06:29:31.831Z,454.00
2024-03-02T06:30:31.838Z,455.00
2024-03-02T06:31:31.812Z,455.00
2024-03-02T06:32:31.827Z,452.00
2024-03-02T06:33:31.812Z,449.00
2024-03-02T06:34:31.781Z,450.00
2024-03-02T06:35:31.775Z,450.00
2024-03-02T06:36:31.862Z,452.00
2024-03-02T06:37:31.756Z,450.00
2024-03-02T06:38:31.745Z,450.00
2024-03-02T06:39:31.765Z,449.00
2024-03-02T06:40:31.742Z,450.00
2024-03-02T06:41:31.725Z,446.00
2024-03-02T06:42:31.807Z,445.00
2024-03-02T06:43:31.699Z,445.00
2024-03-02T06:44:31.694Z,447.00
2024-03-02T06:45:31.781Z,450.00
2024-03-02T06:46:31.685Z,449.00
2024-03-02T06:47:31.681Z,451.00
2024-03-02T06:48:31.799Z,452.00
2024-03-02T06:49:31.670Z,452.00
2024-03-02T06:50:31.662Z,451.00
2024-03-02T06:51:31.657Z,453.00
2024-03-02T06:52:31.637Z,453.00
2024-03-02T06:53:31.592Z,453.00
2024-03-02T06:54:31.609Z,453.00
2024-03-02T06:55:31.592Z,452.00
2024-03-02T06:56:31.583Z,451.00
2024-03-02T06:57:31.592Z,451.00
2024-03-02T06:58:31.567Z,450.00
2024-03-02T06:59:31.581Z,448.00
2024-03-02T07:00:31.607Z,447.00
2024-03-02T07:01:31.529Z,448.00
2024-03-02T07:02:31.507Z,452.00
2024-03-02T07:03:31.521Z,452.00
2024-03-02T07:04:31.500Z,451.00
2024-03-02T07:05:31.473Z,451.00
2024-03-02T07:06:31.526Z,452.00
2024-03-02T07:07:31.442Z,452.00
2024-03-02T07:08:31.436Z,453.00
2024-03-02T07:09:31.440Z,452.00
2024-03-02T07:10:31.403Z,451.00
2024-03-02T07:11:31.463Z,452.00
2024-03-02T07:12:31.365Z,452.00
2024-03-02T07:13:31.377Z,451.00
2024-03-02T07:14:31.408Z,450.00
2024-03-02T07:15:31.463Z,450.00
2024-03-02T07:16:31.446Z,452.00
2024-03-02T07:17:31.458Z,448.00
2024-03-02T07:18:31.498Z,450.00
2024-03-02T07:19:31.555Z,447.00
2024-03-02T07:20:31.531Z,449.00
2024-03-02T07:21:31.579Z,451.00
2024-03-02T07:22:31.569Z,453.00
2024-03-02T07:23:31.591Z,454.00
2024-03-02T07:24:31.689Z,452.00
2024-03-02T07:27:31.615Z,452.00
2024-03-02T07:28:31.587Z,451.00
2024-03-02T07:29:31.560Z,451.00
2024-03-02T07:30:34.034Z,451.00
2024-03-02T07:31:31.549Z,451.00
2024-03-02T07:32:31.585Z,453.00
2024-03-02T07:33:31.546Z,453.00
2024-03-02T07:34:31.515Z,453.00
2024-03-02T07:35:31.514Z,451.00
2024-03-02T07:36:31.499Z,451.00
2024-03-02T07:37:31.467Z,452.00
2024-03-02T07:38:31.464Z,451.00
2024-03-02T07:39:31.455Z,452.00
2024-03-02T07:40:31.431Z,451.00
2024-03-02T07:41:31.424Z,450.00
2024-03-02T07:42:31.416Z,450.00
2024-03-02T07:43:31.389Z,448.00
2024-03-02T07:44:31.391Z,446.00
2024-03-02T07:45:31.378Z,445.00
2024-03-02T07:46:31.346Z,445.00
2024-03-02T07:47:31.357Z,444.00
2024-03-02T07:48:31.320Z,443.00
2024-03-02T07:49:31.309Z,440.00
2024-03-02T07:50:31.265Z,441.00
2024-03-02T07:51:31.274Z,443.00
2024-03-02T07:52:31.232Z,446.00
2024-03-02T07:53:31.219Z,447.00
2024-03-02T07:54:31.245Z,447.00
2024-03-02T07:55:31.200Z,449.00
2024-03-02T07:56:31.172Z,448.00
2024-03-02T07:57:31.180Z,447.00
2024-03-02T07:58:31.133Z,447.00
2024-03-02T07:59:31.103Z,447.00
2024-03-02T08:00:31.160Z,448.00
2024-03-02T08:01:31.144Z,447.00
2024-03-02T08:02:31.066Z,450.00
2024-03-02T08:03:31.073Z,451.00
2024-03-02T08:04:31.026Z,449.00
2024-03-02T08:05:31.004Z,448.00
2024-03-02T08:06:31.009Z,447.00
2024-03-02T08:07:30.979Z,444.00
2024-03-02T08:08:30.952Z,444.00
2024-03-02T08:09:30.969Z,443.00
2024-03-02T08:10:30.923Z,445.00
2024-03-02T08:11:30.918Z,447.00
2024-03-02T08:12:30.884Z,447.00
2024-03-02T08:13:30.866Z,449.00
2024-03-02T08:14:30.839Z,449.00
2024-03-02T08:15:30.851Z,449.00
2024-03-02T08:16:30.793Z,451.00
2024-03-02T08:17:30.803Z,451.00
2024-03-02T08:18:30.792Z,451.00
2024-03-02T08:19:30.732Z,450.00
2024-03-02T08:20:30.725Z,450.00
2024-03-02T08:21:30.688Z,449.00
2024-03-02T08:22:30.679Z,451.00
2024-03-02T08:23:30.636Z,451.00
2024-03-02T08:24:30.673Z,449.00
2024-03-02T08:25:30.623Z,452.00
2024-03-02T08:26:30.602Z,452.00
2024-03-02T08:27:30.598Z,454.00
2024-03-02T08:28:30.555Z,454.00
2024-03-02T08:29:30.538Z,453.00
2024-03-02T08:30:30.539Z,453.00
2024-03-02T08:31:30.500Z,452.00
2024-03-02T08:32:30.492Z,452.00
2024-03-02T08:33:30.483Z,454.00
2024-03-02T08:34:30.427Z,454.00
2024-03-02T08:35:30.421Z,455.00
2024-03-02T08:36:30.415Z,457.00
2024-03-02T08:37:30.365Z,456.00
2024-03-02T08:38:30.349Z,454.00
2024-03-02T08:39:30.387Z,455.00
2024-03-02T08:40:30.304Z,456.00
2024-03-02T08:41:30.289Z,458.00
2024-03-02T08:42:30.308Z,457.00
2024-03-02T08:43:30.283Z,454.00
2024-03-02T08:44:30.292Z,453.00
2024-03-02T08:45:30.350Z,453.00
2024-03-02T08:46:30.321Z,454.00
2024-03-02T08:47:30.308Z,453.00
2024-03-02T08:48:30.370Z,450.00
2024-03-02T08:49:30.291Z,449.00
2024-03-02T08:50:30.344Z,450.00
2024-03-02T08:51:30.322Z,452.00
2024-03-02T08:52:30.310Z,454.00
2024-03-02T08:53:30.312Z,455.00
2024-03-02T08:54:30.344Z,456.00
2024-03-02T08:55:30.361Z,455.00
2024-03-02T08:56:30.328Z,456.00
2024-03-02T08:57:30.425Z,455.00
2024-03-02T08:58:30.353Z,456.00
2024-03-02T08:59:30.381Z,458.00
2024-03-02T09:00:30.435Z,456.00
2024-03-02T09:01:30.466Z,454.00
2024-03-02T09:02:30.397Z,453.00
2024-03-02T09:03:30.473Z,453.00
2024-03-02T09:04:33.688Z,454.00
2024-03-02T09:05:30.483Z,452.00
2024-03-02T09:06:30.379Z,451.00
2024-03-02T09:07:30.336Z,450.00
2024-03-02T09:08:30.297Z,451.00
2024-03-02T09:09:30.303Z,449.00
2024-03-02T09:10:30.306Z,449.00
2024-03-02T09:11:30.257Z,449.00
2024-03-02T09:12:30.241Z,447.00
2024-03-02T09:13:30.197Z,449.00
2024-03-02T09:14:30.183Z,450.00
2024-03-02T09:15:30.438Z,449.00
2024-03-02T09:16:30.146Z,448.00
2024-03-02T09:17:30.113Z,449.00
2024-03-02T09:18:30.167Z,450.00
2024-03-02T09:19:30.066Z,450.00
2024-03-02T09:20:30.059Z,449.00
2024-03-02T09:21:30.051Z,448.00
2024-03-02T09:22:29.979Z,450.00
2024-03-02T09:23:29.949Z,448.00
2024-03-02T09:24:29.943Z,448.00
2024-03-02T09:25:29.906Z,449.00
2024-03-02T09:26:29.892Z,450.00
2024-03-02T09:27:29.881Z,449.00
2024-03-02T09:28:29.840Z,448.00
2024-03-02T09:29:29.864Z,448.00
2024-03-02T09:30:29.936Z,446.00
2024-03-02T09:31:29.963Z,448.00
2024-03-02T09:32:30.054Z,449.00
2024-03-02T09:33:30.130Z,448.00
2024-03-02T09:34:30.104Z,448.00
2024-03-02T09:35:30.111Z,447.00
2024-03-02T09:36:30.156Z,448.00
2024-03-02T09:37:30.160Z,448.00
2024-03-02T09:38:30.193Z,450.00
2024-03-02T09:39:30.209Z,450.00
2024-03-02T09:40:30.229Z,451.00
2024-03-02T09:41:30.258Z,450.00
2024-03-02T09:42:30.304Z,451.00
2024-03-02T09:43:30.296Z,451.00
2024-03-02T09:44:30.324Z,452.00
2024-03-02T09:45:30.359Z,453.00
2024-03-02T09:46:30.341Z,452.00
2024-03-02T09:47:30.381Z,453.00
2024-03-02T09:48:30.386Z,453.00
2024-03-02T09:49:30.369Z,453.00
2024-03-02T09:50:30.368Z,450.00
2024-03-02T09:51:30.383Z,451.00
2024-03-02T09:52:30.376Z,450.00
2024-03-02T09:53:30.364Z,449.00
2024-03-02T09:54:30.399Z,450.00
2024-03-02T09:55:30.352Z,448.00
2024-03-02T09:56:30.365Z,447.00
2024-03-02T09:57:30.351Z,446.00
2024-03-02T09:58:30.327Z,445.00
2024-03-02T09:59:30.298Z,445.00
2024-03-02T10:00:30.340Z,445.00
2024-03-02T10:01:30.340Z,445.00
2024-03-02T10:02:30.226Z,448.00
2024-03-02T10:03:30.220Z,449.00
2024-03-02T10:04:30.160Z,448.00
2024-03-02T10:05:30.264Z,447.00
2024-03-02T10:06:30.160Z,448.00
2024-03-02T10:07:30.047Z,451.00
2024-03-02T10:08:30.007Z,452.00
2024-03-02T10:09:30.039Z,454.00
2024-03-02T10:10:29.920Z,456.00
2024-03-02T10:11:29.941Z,455.00
2024-03-02T10:12:29.883Z,454.00
2024-03-02T10:13:29.799Z,455.00
2024-03-02T10:14:29.763Z,455.00
2024-03-02T10:15:29.743Z,453.00
2024-03-02T10:16:29.717Z,454.00
2024-03-02T10:17:29.671Z,456.00
2024-03-02T10:18:29.751Z,458.00
2024-03-02T10:19:29.560Z,458.00
2024-03-02T10:20:29.523Z,458.00
2024-03-02T10:21:29.519Z,457.00
2024-03-02T10:22:29.457Z,454.00
2024-03-02T10:23:29.408Z,456.00
2024-03-02T10:24:29.381Z,457.00
2024-03-02T10:25:37.383Z,457.00
2024-03-02T10:26:30.287Z,458.00
2024-03-02T10:27:29.292Z,454.00
2024-03-02T10:28:29.288Z,454.00
2024-03-02T10:29:29.185Z,452.00
2024-03-02T10:30:29.210Z,451.00
2024-03-02T10:31:29.137Z,452.00
2024-03-02T10:32:29.155Z,451.00
2024-03-02T10:33:29.099Z,451.00
2024-03-02T10:34:29.024Z,450.00
2024-03-02T10:35:28.986Z,452.00
2024-03-02T10:36:28.984Z,450.00
2024-03-02T10:37:28.916Z,446.00
2024-03-02T10:38:28.892Z,444.00
2024-03-02T10:39:28.863Z,445.00
2024-03-02T10:40:28.822Z,443.00
2024-03-02T10:41:28.781Z,441.00
2024-03-02T10:42:28.747Z,440.00
2024-03-02T10:43:28.705Z,442.00
2024-03-02T10:44:28.680Z,444.00
2024-03-02T10:45:28.692Z,444.00
2024-03-02T10:46:28.605Z,445.00
2024-03-02T10:47:28.574Z,446.00
2024-03-02T10:48:28.573Z,444.00
2024-03-02T10:49:28.501Z,445.00
2024-03-02T10:50:28.469Z,445.00
2024-03-02T10:51:28.443Z,443.00
2024-03-02T10:52:28.407Z,441.00
2024-03-02T10:53:28.365Z,442.00
2024-03-02T10:54:28.442Z,442.00
2024-03-02T10:55:28.521Z,442.00
2024-03-02T10:56:28.317Z,443.00
2024-03-02T10:57:28.299Z,445.00
2024-03-02T10:58:28.240Z,445.00
2024-03-02T10:59:28.131Z,448.00
2024-03-02T11:00:28.252Z,446.00
2024-03-02T11:01:28.188Z,447.00
2024-03-02T11:02:28.015Z,446.00
2024-03-02T11:03:28.006Z,444.00
2024-03-02T11:04:27.976Z,444.00
2024-03-02T11:05:27.919Z,442.00
2024-03-02T11:06:27.967Z,440.00
2024-03-02T11:07:27.872Z,440.00
2024-03-02T11:08:27.828Z,441.00
2024-03-02T11:09:27.815Z,443.00
2024-03-02T11:10:27.757Z,445.00
2024-03-02T11:11:27.856Z,449.00
2024-03-02T11:12:27.700Z,450.00
2024-03-02T11:13:27.657Z,452.00
2024-03-02T11:14:27.619Z,451.00
2024-03-02T11:15:27.624Z,450.00
2024-03-02T11:16:27.542Z,449.00
2024-03-02T11:17:27.524Z,447.00
2024-03-02T11:18:27.544Z,447.00
2024-03-02T11:19:27.476Z,448.00
2024-03-02T11:20:27.470Z,447.00
2024-03-02T11:21:27.412Z,449.00
2024-03-02T11:22:27.386Z,449.00
2024-03-02T11:23:27.286Z,449.00
2024-03-02T11:24:27.261Z,450.00
2024-03-02T11:25:27.220Z,448.00
2024-03-02T11:26:27.179Z,449.00
2024-03-02T11:27:27.164Z,451.00
2024-03-02T11:28:27.122Z,452.00
2024-03-02T11:29:27.154Z,451.00
2024-03-02T11:30:27.161Z,451.00
2024-03-02T11:31:27.148Z,451.00
2024-03-02T11:32:27.171Z,449.00
2024-03-02T11:33:27.238Z,451.00
2024-03-02T11:34:27.170Z,450.00
2024-03-02T11:35:27.265Z,451.00
2024-03-02T11:36:27.194Z,452.00
2024-03-02T11:37:27.182Z,449.00
2024-03-02T11:38:27.236Z,449.00
2024-03-02T11:39:27.249Z,447.00
2024-03-02T11:40:27.267Z,448.00
2024-03-02T11:41:27.318Z,450.00
2024-03-02T11:42:27.322Z,449.00
2024-03-02T11:43:27.324Z,447.00
2024-03-02T11:44:27.336Z,447.00
2024-03-02T11:45:27.372Z,447.00
2024-03-02T11:46:27.358Z,449.00
2024-03-02T11:47:27.393Z,447.00
2024-03-02T11:48:27.367Z,447.00
2024-03-02T11:49:27.371Z,443.00
2024-03-02T11:50:27.373Z,442.00
2024-03-02T11:51:27.444Z,444.00
2024-03-02T11:52:27.458Z,444.00
2024-03-02T11:53:27.509Z,445.00
2024-03-02T11:54:27.537Z,445.00
2024-03-02T11:55:27.532Z,447.00
2024-03-02T11:56:27.549Z,448.00
2024-03-02T11:57:27.650Z,448.00
2024-03-02T11:58:27.600Z,447.00
2024-03-02T11:59:27.627Z,449.00
2024-03-02T12:00:27.673Z,446.00
2024-03-02T12:01:27.885Z,444.00
2024-03-02T12:02:27.648Z,446.00
2024-03-02T12:03:27.892Z,445.00
2024-03-02T12:04:27.582Z,448.00
2024-03-02T12:05:27.540Z,449.00
2024-03-02T12:06:27.524Z,448.00
2024-03-02T12:07:27.449Z,448.00
2024-03-02T12:08:27.410Z,448.00
2024-03-02T12:09:27.392Z,450.00
2024-03-02T12:10:27.326Z,450.00
2024-03-02T12:11:27.393Z,450.00
2024-03-02T12:12:27.277Z,451.00
2024-03-02T12:13:27.204Z,449.00
2024-03-02T12:14:27.154Z,448.00
2024-03-02T12:15:27.168Z,449.00
2024-03-02T12:16:27.142Z,449.00
2024-03-02T12:17:27.039Z,449.00
2024-03-02T12:18:27.472Z,448.00
2024-03-02T12:19:26.963Z,449.00
2024-03-02T12:20:26.919Z,448.00
2024-03-02T12:21:26.922Z,448.00
2024-03-02T12:22:26.824Z,449.00
2024-03-02T12:23:26.894Z,449.00
2024-03-02T12:24:26.734Z,448.00
2024-03-02T12:25:26.687Z,450.00
2024-03-02T12:26:26.652Z,448.00
2024-03-02T12:27:26.595Z,450.00
2024-03-02T12:28:26.541Z,448.00
2024-03-02T12:29:26.512Z,451.00
2024-03-02T12:30:26.480Z,451.00